Time;durP1;ratioP1;P1;durP2;ratioP2;P2;SDS_P1;SDS_P2;PMS_P1;PMS_P2;Temp;Humidity;BMP_temperature;BMP_pressure;BME280_temperature;BME280_humidity;BME280_pressure;Samples;Min_cycle;Max_cycle;Signal;HPM_P1;HPM_P2
2022/04/12 00:01:53;;;;;;;;;;;;;;;7.93;44.64;100327.25;4410136;32;20046;-80
2022/04/12 00:04:20;;;;;;;;;;;;;;;7.90;44.53;100327.16;4401421;32;20028;-78
2022/04/12 00:06:47;;;;;;;;;;;;;;;7.92;43.44;100325.50;4417391;32;20298;-75
2022/04/12 00:09:14;;;;;;;;;;;;;;;8.05;43.83;100315.63;4399420;32;20395;-83
2022/04/12 00:11:42;;;;;;;;;;;;;;;7.92;44.06;100325.50;4401407;32;19977;-79
2022/04/12 00:14:09;;;;;;;;;;;;;;;7.91;44.70;100328.03;4417427;32;19970;-82
2022/04/12 00:16:35;;;;;;;;;;;;;;;8.20;43.23;100331.63;4410311;32;20098;-80
2022/04/12 00:19:03;;;;;;;;;;;;;;;8.16;43.66;100329.72;4399578;32;20005;-78
2022/04/12 00:21:34;;;;;;;;;;;;;;;8.24;43.05;100323.16;4404723;32;20323;-79
2022/04/12 00:24:02;;;;;;;;;;;;;;;8.13;44.33;100314.16;4412816;32;19973;-80
2022/04/12 00:26:29;;;;;;;;;;;;;;;8.17;43.55;100316.03;4414628;32;20422;-77
2022/04/12 00:28:56;;;;;;;;;;;;;;;8.36;42.76;100312.38;4400491;32;20001;-78
2022/04/12 00:31:23;;;;;;;;;;;;;;;8.20;43.37;100310.97;4400347;32;20379;-75
2022/04/12 00:33:50;;;;;;;;;;;;;;;8.25;43.47;100304.25;4413764;32;19996;-82
2022/04/12 00:36:17;;;;;;;;;;;;;;;8.27;43.75;100306.91;4407194;32;20012;-79
2022/04/12 00:38:43;;;;;;;;;;;;;;;8.05;44.67;100303.59;4415059;32;19991;-78
2022/04/12 00:41:11;;;;;;;;;;;;;;;8.21;43.84;100306.69;4402854;32;19981;-75
2022/04/12 00:43:38;;;;;;;;;;;;;;;8.38;43.81;100303.00;4416196;32;20390;-76
2022/04/12 00:46:05;;;;;;;;;;;;;;;8.12;44.43;100307.25;4409257;32;20017;-81
2022/04/12 00:48:32;;;;;;;;;;;;;;;7.92;45.16;100299.75;4401409;32;19982;-80
2022/04/12 00:50:59;;;;;;;;;;;;;;;7.95;44.84;100304.13;4416995;32;20004;-77
2022/04/12 00:53:27;;;;;;;;;;;;;;;7.79;45.39;100307.87;4424701;32;20245;-72
2022/04/12 00:55:54;;;;;;;;;;;;;;;7.91;44.81;100300.56;4410594;32;20773;-83
2022/04/12 00:58:21;;;;;;;;;;;;;;;7.76;45.29;100302.63;4427525;32;19990;-75
2022/04/12 01:00:50;;;;;;;;;;;;;;;7.82;45.48;100307.09;4412052;32;19998;-75
2022/04/12 01:03:17;;;;;;;;;;;;;;;7.98;44.81;100305.94;4404091;32;20016;-75
2022/04/12 01:05:45;;;;;;;;;;;;;;;7.79;45.54;100310.44;4409379;32;20017;-77
2022/04/12 01:08:11;;;;;;;;;;;;;;;7.73;45.65;100312.81;4413884;32;20437;-82
2022/04/12 01:10:39;;;;;;;;;;;;;;;7.72;45.85;100300.72;4418863;32;20005;-81
2022/04/12 01:13:05;;;;;;;;;;;;;;;7.68;46.38;100299.75;4412654;32;19970;-75
2022/04/12 01:15:32;;;;;;;;;;;;;;;7.92;45.77;100304.03;4404665;32;20366;-76
2022/04/12 01:17:59;;;;;;;;;;;;;;;7.95;45.73;100298.97;4416253;32;20357;-83
2022/04/12 01:20:30;;;;;;;;;;;;;;;8.01;45.06;100306.00;4434781;32;19990;-84
2022/04/12 01:22:57;;;;;;;;;;;;;;;7.64;45.93;100302.19;4416884;32;19982;-74
2022/04/12 01:25:24;;;;;;;;;;;;;;;7.75;45.65;100303.41;4431709;32;19990;-77
2022/04/12 01:27:51;;;;;;;;;;;;;;;7.63;45.99;100300.44;4429945;32;19997;-83
2022/04/12 01:30:18;;;;;;;;;;;;;;;7.51;46.16;100294.84;4435193;32;20031;-76
2022/04/12 01:32:45;;;;;;;;;;;;;;;7.59;46.21;100294.28;4431731;32;19988;-76
2022/04/12 01:35:12;;;;;;;;;;;;;;;7.68;45.81;100298.88;4417832;32;19982;-80
2022/04/12 01:37:39;;;;;;;;;;;;;;;7.52;46.34;100291.44;4415250;32;19994;-80
2022/04/12 01:40:06;;;;;;;;;;;;;;;7.54;45.88;100297.53;4403228;32;19992;-76
2022/04/12 01:42:33;;;;;;;;;;;;;;;7.54;45.96;100294.97;4400886;32;20028;-75
2022/04/12 01:45:00;;;;;;;;;;;;;;;7.23;46.90;100293.84;4412661;32;19994;-76
2022/04/12 01:47:27;;;;;;;;;;;;;;;7.62;44.94;100298.66;4420319;32;19982;-81
2022/04/12 01:49:54;;;;;;;;;;;;;;;7.68;45.21;100298.88;4414613;32;20033;-78
2022/04/12 01:52:22;;;;;;;;;;;;;;;7.57;45.21;100295.06;4406183;32;20036;-80
2022/04/12 01:54:49;;;;;;;;;;;;;;;7.40;45.98;100297.91;4409635;32;19986;-83
2022/04/12 01:57:16;;;;;;;;;;;;;;;7.45;45.88;100306.66;4421343;32;20024;-73
2022/04/12 01:59:42;;;;;;;;;;;;;;;7.34;46.64;100296.78;4412860;32;19986;-78
2022/04/12 02:02:09;;;;;;;;;;;;;;;7.42;46.10;100300.53;4414125;32;19982;-76
2022/04/12 02:04:39;;;;;;;;;;;;;;;7.35;46.00;100303.72;4400825;32;19983;-73
2022/04/12 02:07:06;;;;;;;;;;;;;;;7.49;45.27;100301.63;4402688;32;20033;-79
2022/04/12 02:09:32;;;;;;;;;;;;;;;7.52;45.09;100296.59;4393188;32;19986;-80
2022/04/12 02:11:59;;;;;;;;;;;;;;;7.50;44.92;100298.22;4399801;32;19978;-76
2022/04/12 02:14:26;;;;;;;;;;;;;;;7.23;45.94;100304.13;4401691;32;19983;-74
2022/04/12 02:16:53;;;;;;;;;;;;;;;7.18;46.31;100303.97;4413734;32;20044;-78
2022/04/12 02:19:20;;;;;;;;;;;;;;;7.28;46.18;100301.75;4420184;32;19996;-82
2022/04/12 02:21:46;;;;;;;;;;;;;;;7.42;45.74;100296.25;4404039;32;20366;-84
2022/04/12 02:24:13;;;;;;;;;;;;;;;7.34;46.02;100297.69;4405750;32;20033;-77
2022/04/12 02:26:40;;;;;;;;;;;;;;;7.15;46.37;100296.16;4096416;32;10004019;-75
2022/04/12 02:29:07;;;;;;;;;;;;;;;7.08;46.71;100288.13;4400854;32;19990;-82
2022/04/12 02:31:34;;;;;;;;;;;;;;;7.09;46.65;100295.03;4400529;32;20099;-79
2022/04/12 02:34:01;;;;;;;;;;;;;;;7.27;45.77;100294.81;4403107;32;20093;-76
2022/04/12 02:36:28;;;;;;;;;;;;;;;7.12;46.26;100295.16;4400968;32;20332;-78
2022/04/12 02:38:55;;;;;;;;;;;;;;;7.19;45.82;100291.97;4387157;32;19994;-77
2022/04/12 02:41:22;;;;;;;;;;;;;;;7.20;45.68;100293.72;4102207;32;10000838;-81
2022/04/12 02:43:48;;;;;;;;;;;;;;;7.15;46.00;100300.41;4409147;32;19973;-83
2022/04/12 02:46:15;;;;;;;;;;;;;;;7.10;45.97;100297.66;4417674;32;20041;-75
2022/04/12 02:48:43;;;;;;;;;;;;;;;6.99;46.67;100304.13;4424758;32;20000;-76
2022/04/12 02:51:09;;;;;;;;;;;;;;;6.98;46.62;100298.06;4427068;32;20002;-75
2022/04/12 02:53:37;;;;;;;;;;;;;;;7.18;45.45;100296.25;4396554;32;20035;-76
2022/04/12 02:56:04;;;;;;;;;;;;;;;6.92;46.22;100297.87;4429893;32;19974;-74
2022/04/12 02:58:30;;;;;;;;;;;;;;;7.07;45.98;100301.81;4430775;32;20031;-75
2022/04/12 03:00:57;;;;;;;;;;;;;;;7.24;45.25;100305.88;4439113;32;19982;-73
2022/04/12 03:03:24;;;;;;;;;;;;;;;6.96;46.61;100304.87;4426688;32;19981;-76
2022/04/12 03:05:51;;;;;;;;;;;;;;;7.01;46.36;100311.87;4427147;32;19982;-74
2022/04/12 03:08:18;;;;;;;;;;;;;;;7.09;45.91;100310.47;4421583;32;20009;-76
2022/04/12 03:10:45;;;;;;;;;;;;;;;7.15;45.53;100318.44;4418446;32;20303;-72
2022/04/12 03:13:12;;;;;;;;;;;;;;;7.23;45.44;100311.84;4431397;32;20031;-72
2022/04/12 03:15:39;;;;;;;;;;;;;;;7.11;46.10;100308.81;4437794;32;19992;-73
2022/04/12 03:18:06;;;;;;;;;;;;;;;6.90;46.95;100308.91;4433861;32;19985;-79
2022/04/12 03:20:33;;;;;;;;;;;;;;;6.90;46.37;100309.78;4415438;32;20371;-80
2022/04/12 03:23:05;;;;;;;;;;;;;;;6.88;46.90;100306.25;4418130;32;20002;-73
2022/04/12 03:25:32;;;;;;;;;;;;;;;6.87;46.81;100304.53;4413239;32;20311;-73
2022/04/12 03:27:59;;;;;;;;;;;;;;;6.83;47.29;100302.66;4404187;32;19978;-76
2022/04/12 03:30:25;;;;;;;;;;;;;;;6.81;47.34;100304.28;4408142;32;19998;-73
2022/04/12 03:32:52;;;;;;;;;;;;;;;7.02;45.96;100309.38;4406900;32;20323;-72
2022/04/12 03:35:21;;;;;;;;;;;;;;;6.90;46.37;100299.50;4411476;32;19981;-73
2022/04/12 03:37:48;;;;;;;;;;;;;;;6.82;47.07;100311.16;4398899;32;19978;-72
2022/04/12 03:40:16;;;;;;;;;;;;;;;6.78;47.05;100319.59;4411831;32;20843;-74
2022/04/12 03:42:43;;;;;;;;;;;;;;;6.86;46.73;100312.16;4410975;32;20008;-73
2022/04/12 03:45:10;;;;;;;;;;;;;;;6.73;46.78;100326.25;4415622;32;19975;-76
2022/04/12 03:47:38;;;;;;;;;;;;;;;6.59;47.52;100322.25;4426364;32;19997;-79
2022/04/12 03:50:05;;;;;;;;;;;;;;;6.57;48.05;100321.31;4410225;32;20013;-74
2022/04/12 03:52:32;;;;;;;;;;;;;;;6.72;47.17;100321.94;4411194;32;19974;-76
2022/04/12 03:55:00;;;;;;;;;;;;;;;6.91;46.69;100321.81;4407976;32;19989;-73
2022/04/12 03:57:26;;;;;;;;;;;;;;;6.75;47.07;100324.63;4403986;32;20009;-72
2022/04/12 03:59:53;;;;;;;;;;;;;;;6.78;47.22;100324.75;4404722;32;20032;-72
2022/04/12 04:02:20;;;;;;;;;;;;;;;6.52;47.84;100327.16;4399788;32;19985;-73
2022/04/12 04:04:48;;;;;;;;;;;;;;;6.47;47.83;100333.81;4399389;32;20020;-73
2022/04/12 04:07:14;;;;;;;;;;;;;;;6.46;48.04;100332.06;4410872;32;20032;-73
2022/04/12 04:09:41;;;;;;;;;;;;;;;6.50;47.51;100328.78;4404526;32;20414;-73
2022/04/12 04:12:08;;;;;;;;;;;;;;;6.58;47.49;100341.09;4424673;32;20323;-74
2022/04/12 04:14:35;;;;;;;;;;;;;;;6.48;47.80;100335.59;4416604;32;19986;-73
2022/04/12 04:17:02;;;;;;;;;;;;;;;6.53;48.03;100331.47;4410705;32;19990;-72
2022/04/12 04:19:29;;;;;;;;;;;;;;;6.43;48.52;100331.94;4401778;32;20027;-73
2022/04/12 04:21:56;;;;;;;;;;;;;;;6.72;47.43;100329.66;4391458;32;19990;-72
2022/04/12 04:24:23;;;;;;;;;;;;;;;6.62;47.58;100332.69;4404428;32;20032;-71
2022/04/12 04:26:55;;;;;;;;;;;;;;;6.58;48.03;100325.66;4398405;32;19998;-73
2022/04/12 04:29:23;;;;;;;;;;;;;;;6.28;49.18;100337.31;4407266;32;20261;-74
2022/04/12 04:31:51;;;;;;;;;;;;;;;6.51;48.20;100333.13;4412494;32;20042;-78
2022/04/12 04:34:18;;;;;;;;;;;;;;;6.30;48.95;100334.81;4412940;32;19971;-74
2022/04/12 04:36:45;;;;;;;;;;;;;;;6.67;47.97;100331.19;4415763;32;20044;-73
2022/04/12 04:39:12;;;;;;;;;;;;;;;6.64;48.22;100325.91;4412860;32;20023;-74
2022/04/12 04:41:38;;;;;;;;;;;;;;;6.75;47.87;100324.63;4412694;32;19993;-73
2022/04/12 04:44:05;;;;;;;;;;;;;;;6.64;48.77;100337.06;4413466;32;19994;-73
2022/04/12 04:46:32;;;;;;;;;;;;;;;6.79;48.33;100335.91;4411359;32;20259;-74
2022/04/12 04:48:59;;;;;;;;;;;;;;;6.83;48.54;100341.25;4405594;32;19993;-74
2022/04/12 04:51:26;;;;;;;;;;;;;;;6.92;48.45;100341.63;4400881;32;20031;-76
2022/04/12 04:53:59;;;;;;;;;;;;;;;7.20;48.27;100342.63;4407523;32;19982;-74
2022/04/12 04:56:26;;;;;;;;;;;;;;;7.28;48.21;100354.12;4417767;32;20039;-72
2022/04/12 04:58:53;;;;;;;;;;;;;;;7.25;48.19;100350.56;4415833;32;20314;-72
2022/04/12 05:01:20;;;;;;;;;;;;;;;7.28;48.36;100359.28;4416926;32;19978;-72
2022/04/12 05:03:47;;;;;;;;;;;;;;;7.52;47.67;100351.56;4424226;32;19993;-72
2022/04/12 05:06:15;;;;;;;;;;;;;;;7.52;47.60;100353.25;4416502;32;19986;-73
2022/04/12 05:08:41;;;;;;;;;;;;;;;7.52;48.01;100358.41;4427672;32;20072;-73
2022/04/12 05:11:08;;;;;;;;;;;;;;;7.56;47.64;100362.84;4422183;32;20037;-72
2022/04/12 05:13:36;;;;;;;;;;;;;;;7.79;47.14;100364.56;4424754;32;19978;-76
2022/04/12 05:16:03;;;;;;;;;;;;;;;7.76;46.93;100368.75;4424674;32;20342;-72
2022/04/12 05:18:30;;;;;;;;;;;;;;;7.97;46.24;100363.44;4415040;32;20035;-73
2022/04/12 05:20:57;;;;;;;;;;;;;;;7.91;46.63;100359.84;4427480;32;19982;-73
2022/04/12 05:23:24;;;;;;;;;;;;;;;8.00;46.57;100368.72;4415508;32;20028;-74
2022/04/12 05:25:53;;;;;;;;;;;;;;;8.01;46.24;100370.47;4417495;32;20020;-76
2022/04/12 05:28:21;;;;;;;;;;;;;;;8.30;46.04;100374.94;4434681;32;20314;-79
2022/04/12 05:30:47;;;;;;;;;;;;;;;8.38;45.45;100377.78;4414676;32;20002;-77
2022/04/12 05:33:14;;;;;;;;;;;;;;;8.53;45.50;100370.56;4418481;32;19986;-73
2022/04/12 05:35:41;;;;;;;;;;;;;;;8.70;44.79;100376.25;4427279;32;20044;-78
2022/04/12 05:38:08;;;;;;;;;;;;;;;8.99;44.57;100378.88;4414367;32;20645;-76
2022/04/12 05:40:35;;;;;;;;;;;;;;;9.08;43.86;100380.03;4442102;32;20003;-76
2022/04/12 05:43:02;;;;;;;;;;;;;;;9.41;42.59;100386.19;4428667;32;20064;-79
2022/04/12 05:45:29;;;;;;;;;;;;;;;9.40;42.82;100381.84;4432544;32;20476;-80
2022/04/12 05:47:56;;;;;;;;;;;;;;;9.52;42.28;100377.03;4414917;32;19998;-78
2022/04/12 05:50:24;;;;;;;;;;;;;;;9.50;43.77;100378.69;4426874;32;19986;-76
2022/04/12 05:52:52;;;;;;;;;;;;;;;9.65;42.73;100384.31;4412762;32;20037;-74
2022/04/12 05:55:19;;;;;;;;;;;;;;;9.71;41.34;100376.72;4436075;32;20013;-76
2022/04/12 05:57:50;;;;;;;;;;;;;;;9.82;41.72;100382.19;4421075;32;20391;-78
2022/04/12 06:00:19;;;;;;;;;;;;;;;9.91;41.47;100382.44;4431304;32;20023;-78
2022/04/12 06:02:46;;;;;;;;;;;;;;;9.85;41.43;100386.56;4402727;32;20040;-80
2022/04/12 06:05:13;;;;;;;;;;;;;;;10.02;41.46;100391.38;4436257;32;20004;-74
2022/04/12 06:07:41;;;;;;;;;;;;;;;9.96;42.03;100387.75;4427364;32;20343;-73
2022/04/12 06:10:08;;;;;;;;;;;;;;;9.75;41.74;100391.50;4427493;32;19981;-80
2022/04/12 06:12:35;;;;;;;;;;;;;;;9.94;41.96;100389.41;4435605;32;19985;-84
2022/04/12 06:15:02;;;;;;;;;;;;;;;10.25;41.62;100393.72;4407807;32;19994;-74
2022/04/12 06:17:34;;;;;;;;;;;;;;;10.30;41.25;100391.25;4410928;32;20024;-77
2022/04/12 06:20:05;;;;;;;;;;;;;;;10.49;41.60;100388.31;4432243;32;19986;-81
2022/04/12 06:22:32;;;;;;;;;;;;;;;10.58;41.10;100398.91;4421451;32;19974;-79
2022/04/12 06:24:59;;;;;;;;;;;;;;;10.54;41.65;100397.06;4412610;32;19995;-77
2022/04/12 06:27:34;;;;;;;;;;;;;;;10.90;40.99;100396.22;4418550;32;19970;-78
2022/04/12 06:30:05;;;;;;;;;;;;;;;11.02;40.46;100399.09;4410708;32;19978;-73
2022/04/12 06:32:32;;;;;;;;;;;;;;;11.14;40.31;100401.97;4418328;32;20053;-77
2022/04/12 06:34:59;;;;;;;;;;;;;;;11.38;40.10;100398.16;4406207;32;20036;-73
2022/04/12 06:37:26;;;;;;;;;;;;;;;12.03;38.65;100393.50;4411661;32;19987;-81
2022/04/12 06:39:54;;;;;;;;;;;;;;;12.55;35.91;100398.75;4386001;32;20041;-82
2022/04/12 06:42:21;;;;;;;;;;;;;;;12.95;35.56;100400.25;4404998;32;20046;-73
2022/04/12 06:44:48;;;;;;;;;;;;;;;13.39;34.08;100402.66;4398790;32;20036;-72
2022/04/12 06:47:16;;;;;;;;;;;;;;;13.90;33.10;100390.28;4402285;32;20089;-72
2022/04/12 06:49:50;;;;;;;;;;;;;;;14.15;32.47;100388.81;4417008;32;20476;-72
2022/04/12 06:52:21;;;;;;;;;;;;;;;14.55;31.14;100391.81;4411258;32;20278;-78
2022/04/12 06:54:48;;;;;;;;;;;;;;;14.68;29.94;100383.28;4417907;32;20041;-73
2022/04/12 06:57:16;;;;;;;;;;;;;;;14.87;30.36;100385.16;4412511;32;19974;-73
2022/04/12 06:59:43;;;;;;;;;;;;;;;15.11;30.01;100391.38;4405548;32;19991;-82
2022/04/12 07:02:10;;;;;;;;;;;;;;;15.49;29.37;100388.12;4405986;32;19974;-81
2022/04/12 07:04:37;;;;;;;;;;;;;;;15.39;29.24;100383.75;4416470;32;19991;-74
2022/04/12 07:07:04;;;;;;;;;;;;;;;16.00;29.06;100389.22;4402378;32;19990;-74
2022/04/12 07:09:32;;;;;;;;;;;;;;;15.97;27.91;100390.09;4398087;32;19990;-73
2022/04/12 07:11:59;;;;;;;;;;;;;;;16.03;28.25;100384.00;4400181;32;19986;-73
2022/04/12 07:14:28;;;;;;;;;;;;;;;16.07;28.25;100390.97;4408012;32;19986;-74
2022/04/12 07:16:56;;;;;;;;;;;;;;;16.16;27.73;100391.00;4401131;32;20029;-76
2022/04/12 07:19:22;;;;;;;;;;;;;;;16.56;27.47;100391.06;4413509;32;20043;-72
2022/04/12 07:21:49;;;;;;;;;;;;;;;16.57;27.15;100402.41;4405910;32;19989;-78
2022/04/12 07:24:16;;;;;;;;;;;;;;;17.04;26.13;100394.56;4400158;32;20004;-85
2022/04/12 07:26:43;;;;;;;;;;;;;;;17.00;25.82;100400.66;4406155;32;19982;-74
2022/04/12 07:29:10;;;;;;;;;;;;;;;17.13;25.61;100399.78;4405815;32;19997;-77
2022/04/12 07:31:37;;;;;;;;;;;;;;;17.21;27.26;100391.91;4410850;32;19974;-90
2022/04/12 07:34:04;;;;;;;;;;;;;;;17.54;25.37;100396.16;4403895;32;20332;-80
2022/04/12 07:36:31;;;;;;;;;;;;;;;17.56;25.32;100394.44;4397952;32;20073;-78
2022/04/12 07:38:58;;;;;;;;;;;;;;;17.53;27.00;100399.69;4399706;32;20029;-76
2022/04/12 07:41:25;;;;;;;;;;;;;;;17.86;25.76;100397.81;4401742;32;19978;-78
2022/04/12 07:43:53;;;;;;;;;;;;;;;17.85;25.76;100401.31;4412474;32;20027;-74
2022/04/12 07:46:20;;;;;;;;;;;;;;;18.23;25.59;100408.12;4400108;32;20377;-77
2022/04/12 07:48:48;;;;;;;;;;;;;;;18.33;25.10;100404.56;4424985;32;20332;-81
2022/04/12 07:51:17;;;;;;;;;;;;;;;18.33;24.70;100402.78;4419670;32;19978;-81
2022/04/12 07:53:44;;;;;;;;;;;;;;;18.61;24.52;100399.13;4425624;32;20021;-75
2022/04/12 07:56:10;;;;;;;;;;;;;;;19.10;22.88;100403.97;4407490;32;20009;-78
2022/04/12 07:58:37;;;;;;;;;;;;;;;18.93;24.44;100407.63;4418728;32;19990;-75
2022/04/12 08:01:04;;;;;;;;;;;;;;;18.65;22.92;100411.31;4414303;32;19986;-82
2022/04/12 08:03:31;;;;;;;;;;;;;;;19.05;22.09;100407.50;4400408;32;19994;-87
2022/04/12 08:05:58;;;;;;;;;;;;;;;18.93;23.14;100407.63;4413533;32;19990;-80
2022/04/12 08:08:25;;;;;;;;;;;;;;;18.97;24.15;100404.06;4425473;32;19999;-82
2022/04/12 08:10:52;;;;;;;;;;;;;;;19.12;23.23;100407.44;4407634;32;19994;-76
2022/04/12 08:13:19;;;;;;;;;;;;;;;19.19;22.80;100414.38;4404026;32;19990;-84
2022/04/12 08:15:46;;;;;;;;;;;;;;;19.13;23.62;100412.66;4399072;32;19982;-79
2022/04/12 08:18:13;;;;;;;;;;;;;;;19.32;22.49;100420.34;4401138;32;19997;-81
2022/04/12 08:20:40;;;;;;;;;;;;;;;19.66;22.02;100415.66;4417182;32;20354;-79
2022/04/12 08:23:07;;;;;;;;;;;;;;;19.05;22.24;100412.75;4410536;32;19993;-81
2022/04/12 08:25:34;;;;;;;;;;;;;;;19.42;22.39;100416.75;4414268;32;20367;-85
2022/04/12 08:28:01;;;;;;;;;;;;;;;19.36;22.46;100424.69;4404828;32;20468;-78
2022/04/12 08:30:28;;;;;;;;;;;;;;;19.54;22.58;100415.75;4412521;32;20740;-74
2022/04/12 08:32:55;;;;;;;;;;;;;;;19.44;23.27;100428.97;4398869;32;19986;-79
2022/04/12 08:35:22;;;;;;;;;;;;;;;19.38;22.49;100421.16;4403109;32;20310;-78
2022/04/12 08:37:49;;;;;;;;;;;;;;;19.58;23.10;100422.69;4402142;32;19986;-81
2022/04/12 08:40:18;;;;;;;;;;;;;;;19.48;22.71;100420.16;4398371;32;20108;-77
2022/04/12 08:42:45;;;;;;;;;;;;;;;19.53;23.24;100420.13;4396652;32;19978;-84
2022/04/12 08:45:12;;;;;;;;;;;;;;;19.77;23.02;100423.37;4398846;32;20004;-75
2022/04/12 08:47:40;;;;;;;;;;;;;;;20.11;23.14;100421.19;4410659;32;20031;-77
2022/04/12 08:50:07;;;;;;;;;;;;;;;20.22;22.13;100421.91;4413012;32;19978;-77
2022/04/12 08:52:36;;;;;;;;;;;;;;;20.13;21.81;100417.66;4404741;32;20013;-75
2022/04/12 08:55:03;;;;;;;;;;;;;;;19.68;21.98;100419.09;4390693;32;19974;-78
2022/04/12 08:57:30;;;;;;;;;;;;;;;20.43;21.09;100421.59;4407786;32;19997;-77
2022/04/12 08:59:57;;;;;;;;;;;;;;;20.18;21.57;100414.97;4400955;32;20029;-82
2022/04/12 09:02:24;;;;;;;;;;;;;;;20.24;21.95;100419.28;4418897;32;20037;-78
2022/04/12 09:04:52;;;;;;;;;;;;;;;20.35;22.28;100407.69;4403206;32;20160;-78
2022/04/12 09:07:23;;;;;;;;;;;;;;;20.68;21.29;100413.37;4402059;32;20387;-74
2022/04/12 09:09:50;;;;;;;;;;;;;;;20.64;21.98;100411.66;4408774;32;19978;-82
2022/04/12 09:12:17;;;;;;;;;;;;;;;20.99;21.56;100407.56;4407767;32;19982;-77
2022/04/12 09:14:52;;;;;;;;;;;;;;;20.28;21.74;100400.78;4401103;32;20003;-79
2022/04/12 09:17:20;;;;;;;;;;;;;;;20.81;21.24;100404.38;4412037;32;20734;-80
2022/04/12 09:19:47;;;;;;;;;;;;;;;20.35;20.59;100405.06;4400880;32;19994;-79
2022/04/12 09:22:13;;;;;;;;;;;;;;;19.60;21.38;100400.78;4415730;32;20053;-75
2022/04/12 09:24:48;;;;;;;;;;;;;;;20.04;21.18;100401.12;4416207;32;19989;-79
2022/04/12 09:27:15;;;;;;;;;;;;;;;19.69;23.24;100394.59;4407319;32;19986;-75
2022/04/12 09:29:43;;;;;;;;;;;;;;;19.32;21.51;100394.97;4401125;32;19989;-78
2022/04/12 09:32:13;;;;;;;;;;;;;;;19.19;26.66;100398.62;4411931;32;19981;-78
2022/04/12 09:34:41;;;;;;;;;;;;;;;19.64;22.12;100391.16;4401599;32;19994;-80
2022/04/12 09:37:19;;;;;;;;;;;;;;;19.61;21.63;100396.41;4420330;32;19986;-77
2022/04/12 09:39:48;;;;;;;;;;;;;;;19.79;21.61;100390.97;4402254;32;20072;-82
2022/04/12 09:42:15;;;;;;;;;;;;;;;19.55;21.89;100391.22;4104439;32;10003663;-79
2022/04/12 09:44:42;;;;;;;;;;;;;;;19.75;21.95;100389.28;4396910;32;20030;-82
2022/04/12 09:47:12;;;;;;;;;;;;;;;19.49;21.12;100387.75;4384137;32;20032;-76
2022/04/12 09:49:44;;;;;;;;;;;;;;;19.38;21.94;100384.41;4379218;32;20499;-82
2022/04/12 09:52:11;;;;;;;;;;;;;;;18.71;23.78;100379.81;4404864;32;19985;-77
2022/04/12 09:54:39;;;;;;;;;;;;;;;19.20;23.64;100376.72;4384398;32;20065;-84
2022/04/12 09:57:07;;;;;;;;;;;;;;;19.03;22.26;100371.66;4388828;32;20895;-81
2022/04/12 09:59:55;;;;;;;;;;;;;;;19.32;22.24;100373.97;4395048;32;20295;-80
2022/04/12 10:02:23;;;;;;;;;;;;;;;19.85;21.80;100372.50;4389248;32;20029;-76
2022/04/12 10:04:51;;;;;;;;;;;;;;;19.37;21.50;100372.19;4410853;32;19982;-81
2022/04/12 10:07:18;;;;;;;;;;;;;;;19.66;22.59;100373.63;4400541;32;20004;-78
2022/04/12 10:09:45;;;;;;;;;;;;;;;18.92;22.10;100363.00;4411399;32;20650;-84
2022/04/12 10:12:12;;;;;;;;;;;;;;;19.86;22.47;100349.72;4398701;32;19986;-80
2022/04/12 10:14:39;;;;;;;;;;;;;;;19.09;22.61;100355.00;4396710;32;20392;-81
2022/04/12 10:17:12;;;;;;;;;;;;;;;19.35;25.05;100352.06;4395707;32;20379;-80
2022/04/12 10:19:39;;;;;;;;;;;;;;;20.17;21.69;100344.88;4396883;32;19982;-82
2022/04/12 10:22:07;;;;;;;;;;;;;;;20.54;21.49;100349.56;3896465;32;10000494;-78
2022/04/12 10:24:34;;;;;;;;;;;;;;;20.19;21.77;100354.47;4439987;32;19970;-79
2022/04/12 10:27:01;;;;;;;;;;;;;;;20.12;22.05;100342.31;4407430;32;19993;-79
2022/04/12 10:29:28;;;;;;;;;;;;;;;19.64;22.09;100349.97;4425360;32;19995;-76
2022/04/12 10:31:55;;;;;;;;;;;;;;;19.62;22.24;100345.59;4424745;32;20014;-78
2022/04/12 10:34:58;;;;;;;;;;;;;;;18.51;27.25;100335.41;4407865;32;19967;-79
2022/04/12 10:37:25;;;;;;;;;;;;;;;19.07;25.25;100341.87;4415802;32;20005;-74
2022/04/12 10:40:12;;;;;;;;;;;;;;;19.22;24.96;100333.84;4414236;32;20037;-77
2022/04/12 10:42:40;;;;;;;;;;;;;;;19.04;24.61;100331.41;4417405;32;20049;-77
2022/04/12 10:45:06;;;;;;;;;;;;;;;19.11;23.58;100332.22;4423163;32;20260;-75
2022/04/12 10:47:34;;;;;;;;;;;;;;;19.43;24.13;100324.84;4415592;32;19986;-82
2022/04/12 10:50:03;;;;;;;;;;;;;;;19.72;23.73;100321.00;4416285;32;19990;-73
2022/04/12 10:52:33;;;;;;;;;;;;;;;19.24;23.04;100323.31;4421689;32;20301;-81
2022/04/12 10:55:01;;;;;;;;;;;;;;;19.04;26.12;100321.78;4416130;32;20348;-76
2022/04/12 10:57:28;;;;;;;;;;;;;;;19.39;23.04;100317.88;4427389;32;20369;-79
2022/04/12 10:59:57;;;;;;;;;;;;;;;19.41;23.71;100325.75;4424458;32;20021;-76
2022/04/12 11:02:29;;;;;;;;;;;;;;;19.84;22.09;100312.94;4426622;32;20043;-77
2022/04/12 11:04:57;;;;;;;;;;;;;;;19.15;26.23;100313.81;4415867;32;20005;-74
2022/04/12 11:07:27;;;;;;;;;;;;;;;19.01;28.44;100311.31;4422086;32;19986;-78
2022/04/12 11:10:13;;;;;;;;;;;;;;;19.67;25.12;100312.31;4427884;32;19985;-73
2022/04/12 11:12:41;;;;;;;;;;;;;;;19.88;23.15;100306.75;4416679;32;20028;-75
2022/04/12 11:15:20;;;;;;;;;;;;;;;19.75;23.46;100299.94;4434625;32;20496;-78
2022/04/12 11:17:47;;;;;;;;;;;;;;;20.00;22.86;100294.31;4422290;32;20045;-77
2022/04/12 11:20:21;;;;;;;;;;;;;;;19.81;24.34;100298.97;4426867;32;20057;-76
2022/04/12 11:22:56;;;;;;;;;;;;;;;19.54;23.51;100289.69;4429304;32;20415;-77
2022/04/12 11:25:26;;;;;;;;;;;;;;;18.59;25.15;100284.59;4426214;32;19993;-77
2022/04/12 11:27:59;;;;;;;;;;;;;;;19.45;23.32;100281.03;4425826;32;20049;-77
2022/04/12 11:30:27;;;;;;;;;;;;;;;19.70;21.94;100283.38;4414535;32;20453;-74
2022/04/12 11:32:54;;;;;;;;;;;;;;;18.88;27.70;100275.59;4414001;32;20415;-82
2022/04/12 11:35:24;;;;;;;;;;;;;;;19.57;24.75;100284.41;4423833;32;19985;-79
2022/04/12 11:37:51;;;;;;;;;;;;;;;19.55;23.17;100280.91;4414127;32;20364;-80
2022/04/12 11:40:18;;;;;;;;;;;;;;;19.52;23.27;100277.44;4418766;32;20055;-75
2022/04/12 11:42:45;;;;;;;;;;;;;;;19.24;23.52;100286.56;4413673;32;19989;-77
2022/04/12 11:45:12;;;;;;;;;;;;;;;19.72;23.02;100279.84;4432836;32;20689;-76
2022/04/12 11:47:43;;;;;;;;;;;;;;;19.54;24.98;100277.44;4429329;32;20166;-82
2022/04/12 11:50:15;;;;;;;;;;;;;;;19.50;23.70;100281.88;4425810;32;19978;-78
2022/04/12 11:52:43;;;;;;;;;;;;;;;19.49;26.00;100281.88;4440039;32;19993;-84
2022/04/12 11:55:10;;;;;;;;;;;;;;;19.51;27.79;100275.72;4435820;32;20344;-81
2022/04/12 11:57:41;;;;;;;;;;;;;;;19.60;26.04;100279.12;4426154;32;19982;-77
2022/04/12 12:00:08;;;;;;;;;;;;;;;20.14;23.03;100273.97;4426764;32;20002;-77
2022/04/12 12:02:38;;;;;;;;;;;;;;;19.45;23.35;100275.78;4430909;32;19989;-80
2022/04/12 12:05:05;;;;;;;;;;;;;;;19.87;23.36;100278.72;4446661;32;20004;-76
2022/04/12 12:07:36;;;;;;;;;;;;;;;19.86;22.98;100266.50;4454659;32;19985;-83
2022/04/12 12:10:04;;;;;;;;;;;;;;;20.14;22.28;100260.81;4439825;32;20247;-81
2022/04/12 12:12:34;;;;;;;;;;;;;;;20.08;21.45;100269.66;4428286;32;19998;-80
2022/04/12 12:15:31;;;;;;;;;;;;;;;19.87;24.10;100262.97;4414175;32;19978;-85
2022/04/12 12:18:06;;;;;;;;;;;;;;;20.45;23.13;100263.78;4397015;32;20013;-80
2022/04/12 12:20:34;;;;;;;;;;;;;;;20.53;23.12;100268.94;4416223;32;19998;-86
2022/04/12 12:23:02;;;;;;;;;;;;;;;20.34;21.65;100263.97;4441121;32;20040;-81
2022/04/12 12:25:36;;;;;;;;;;;;;;;20.67;23.31;100256.41;4426508;32;19991;-75
2022/04/12 12:28:08;;;;;;;;;;;;;;;20.67;22.34;100251.13;4432455;32;19997;-76
2022/04/12 12:30:35;;;;;;;;;;;;;;;20.44;22.31;100265.53;4420909;32;19986;-81
2022/04/12 12:33:02;;;;;;;;;;;;;;;20.16;23.20;100259.88;4433399;32;20006;-82
2022/04/12 12:35:29;;;;;;;;;;;;;;;20.04;24.17;100252.22;4428869;32;20311;-76
2022/04/12 12:38:17;;;;;;;;;;;;;;;19.62;24.20;100251.94;4414723;32;19994;-81
2022/04/12 12:40:44;;;;;;;;;;;;;;;19.96;25.29;100254.94;4437617;32;19985;-79
2022/04/12 12:43:12;;;;;;;;;;;;;;;20.09;24.04;100246.87;4416320;32;19996;-86
2022/04/12 12:45:42;;;;;;;;;;;;;;;20.04;23.66;100253.94;4427823;32;20023;-85